sensor_id;sensor_type;location;lat;lon;timestamp;P1;durP1;ratioP1;P2;durP2;ratioP2
67514;SDS011;60646;55.802;37.032;2022-11-22T00:00:17;13.05;;;5.03;;
67514;SDS011;60646;55.802;37.032;2022-11-22T00:02:44;12.73;;;5.47;;
67514;SDS011;60646;55.802;37.032;2022-11-22T00:05:10;12.88;;;5.28;;
67514;SDS011;60646;55.802;37.032;2022-11-22T00:07:36;14.90;;;6.05;;
67514;SDS011;60646;55.802;37.032;2022-11-22T00:10:05;13.38;;;5.10;;
67514;SDS011;60646;55.802;37.032;2022-11-22T00:12:33;11.60;;;4.97;;
67514;SDS011;60646;55.802;37.032;2022-11-22T00:14:59;9.63;;;4.53;;
67514;SDS011;60646;55.802;37.032;2022-11-22T00:17:24;12.77;;;4.97;;
67514;SDS011;60646;55.802;37.032;2022-11-22T00:19:50;11.38;;;4.75;;
67514;SDS011;60646;55.802;37.032;2022-11-22T00:22:16;13.15;;;4.10;;
67514;SDS011;60646;55.802;37.032;2022-11-22T00:24:42;13.25;;;5.20;;
67514;SDS011;60646;55.802;37.032;2022-11-22T00:27:10;10.73;;;4.60;;
67514;SDS011;60646;55.802;37.032;2022-11-22T00:29:36;10.05;;;4.43;;
67514;SDS011;60646;55.802;37.032;2022-11-22T00:32:02;15.80;;;4.68;;
67514;SDS011;60646;55.802;37.032;2022-11-22T00:34:27;11.43;;;4.80;;
67514;SDS011;60646;55.802;37.032;2022-11-22T00:36:53;11.52;;;5.15;;
67514;SDS011;60646;55.802;37.032;2022-11-22T00:39:19;11.80;;;4.28;;
67514;SDS011;60646;55.802;37.032;2022-11-22T00:41:45;11.88;;;4.72;;
67514;SDS011;60646;55.802;37.032;2022-11-22T00:44:10;13.13;;;5.35;;
67514;SDS011;60646;55.802;37.032;2022-11-22T00:46:36;11.77;;;4.32;;
67514;SDS011;60646;55.802;37.032;2022-11-22T00:49:02;12.05;;;4.90;;
67514;SDS011;60646;55.802;37.032;2022-11-22T00:51:28;11.32;;;4.30;;
67514;SDS011;60646;55.802;37.032;2022-11-22T00:53:53;12.80;;;4.70;;
67514;SDS011;60646;55.802;37.032;2022-11-22T00:56:19;10.82;;;4.75;;
67514;SDS011;60646;55.802;37.032;2022-11-22T00:58:45;11.75;;;4.68;;
67514;SDS011;60646;55.802;37.032;2022-11-22T01:01:10;11.38;;;4.60;;
67514;SDS011;60646;55.802;37.032;2022-11-22T01:03:36;15.60;;;5.10;;
67514;SDS011;60646;55.802;37.032;2022-11-22T01:06:02;13.45;;;4.53;;
67514;SDS011;60646;55.802;37.032;2022-11-22T01:08:27;10.57;;;4.40;;
67514;SDS011;60646;55.802;37.032;2022-11-22T01:10:54;11.38;;;5.00;;
67514;SDS011;60646;55.802;37.032;2022-11-22T01:13:20;9.63;;;4.47;;
67514;SDS011;60646;55.802;37.032;2022-11-22T01:15:46;13.70;;;5.20;;
67514;SDS011;60646;55.802;37.032;2022-11-22T01:18:12;10.45;;;4.45;;
67514;SDS011;60646;55.802;37.032;2022-11-22T01:20:38;10.07;;;4.60;;
67514;SDS011;60646;55.802;37.032;2022-11-22T01:23:04;10.38;;;4.40;;
67514;SDS011;60646;55.802;37.032;2022-11-22T01:25:30;10.52;;;5.30;;
67514;SDS011;60646;55.802;37.032;2022-11-22T01:27:56;11.93;;;4.80;;
67514;SDS011;60646;55.802;37.032;2022-11-22T01:30:22;11.18;;;4.53;;
67514;SDS011;60646;55.802;37.032;2022-11-22T01:32:47;10.27;;;3.95;;
67514;SDS011;60646;55.802;37.032;2022-11-22T01:35:13;11.02;;;4.35;;
67514;SDS011;60646;55.802;37.032;2022-11-22T01:37:39;12.68;;;4.65;;
67514;SDS011;60646;55.802;37.032;2022-11-22T01:40:05;12.18;;;4.90;;
67514;SDS011;60646;55.802;37.032;2022-11-22T01:45:51;11.98;;;4.70;;
67514;SDS011;60646;55.802;37.032;2022-11-22T01:48:31;15.52;;;5.22;;
67514;SDS011;60646;55.802;37.032;2022-11-22T01:53:45;14.13;;;5.55;;
67514;SDS011;60646;55.802;37.032;2022-11-22T01:56:12;11.55;;;4.53;;
67514;SDS011;60646;55.802;37.032;2022-11-22T01:58:40;14.52;;;4.60;;
67514;SDS011;60646;55.802;37.032;2022-11-22T02:01:09;11.05;;;4.25;;
67514;SDS011;60646;55.802;37.032;2022-11-22T02:03:36;10.82;;;4.22;;
67514;SDS011;60646;55.802;37.032;2022-11-22T02:06:04;10.40;;;4.47;;
67514;SDS011;60646;55.802;37.032;2022-11-22T02:11:08;10.20;;;4.03;;
67514;SDS011;60646;55.802;37.032;2022-11-22T02:13:36;9.57;;;4.05;;
67514;SDS011;60646;55.802;37.032;2022-11-22T02:16:05;12.18;;;4.47;;
67514;SDS011;60646;55.802;37.032;2022-11-22T02:18:35;11.90;;;4.85;;
67514;SDS011;60646;55.802;37.032;2022-11-22T02:21:01;11.27;;;4.38;;
67514;SDS011;60646;55.802;37.032;2022-11-22T02:23:30;12.40;;;4.95;;
67514;SDS011;60646;55.802;37.032;2022-11-22T02:26:17;12.82;;;4.72;;
67514;SDS011;60646;55.802;37.032;2022-11-22T02:28:43;11.38;;;4.35;;
67514;SDS011;60646;55.802;37.032;2022-11-22T02:31:30;10.98;;;4.63;;
67514;SDS011;60646;55.802;37.032;2022-11-22T02:34:08;15.27;;;5.03;;
67514;SDS011;60646;55.802;37.032;2022-11-22T02:36:37;10.23;;;4.72;;
67514;SDS011;60646;55.802;37.032;2022-11-22T02:39:06;12.57;;;5.30;;
67514;SDS011;60646;55.802;37.032;2022-11-22T02:41:35;13.23;;;4.93;;
67514;SDS011;60646;55.802;37.032;2022-11-22T02:44:02;10.27;;;4.35;;
67514;SDS011;60646;55.802;37.032;2022-11-22T02:46:33;11.68;;;4.53;;
67514;SDS011;60646;55.802;37.032;2022-11-22T02:48:59;9.85;;;4.05;;
67514;SDS011;60646;55.802;37.032;2022-11-22T02:51:25;10.95;;;4.25;;
67514;SDS011;60646;55.802;37.032;2022-11-22T02:53:51;11.73;;;4.63;;
67514;SDS011;60646;55.802;37.032;2022-11-22T02:56:18;12.82;;;4.53;;
67514;SDS011;60646;55.802;37.032;2022-11-22T02:58:44;10.20;;;4.03;;
67514;SDS011;60646;55.802;37.032;2022-11-22T03:01:10;10.30;;;4.32;;
67514;SDS011;60646;55.802;37.032;2022-11-22T03:03:38;11.57;;;4.90;;
67514;SDS011;60646;55.802;37.032;2022-11-22T03:06:06;12.25;;;3.83;;
67514;SDS011;60646;55.802;37.032;2022-11-22T03:08:32;11.13;;;4.43;;
67514;SDS011;60646;55.802;37.032;2022-11-22T03:10:57;11.40;;;4.15;;
67514;SDS011;60646;55.802;37.032;2022-11-22T03:13:24;9.00;;;4.05;;
67514;SDS011;60646;55.802;37.032;2022-11-22T03:15:50;9.50;;;4.05;;
67514;SDS011;60646;55.802;37.032;2022-11-22T03:18:24;10.18;;;4.28;;
67514;SDS011;60646;55.802;37.032;2022-11-22T03:20:49;10.43;;;3.90;;
67514;SDS011;60646;55.802;37.032;2022-11-22T03:23:15;9.80;;;3.78;;
67514;SDS011;60646;55.802;37.032;2022-11-22T03:25:41;10.80;;;4.40;;
67514;SDS011;60646;55.802;37.032;2022-11-22T03:28:07;13.13;;;4.50;;
67514;SDS011;60646;55.802;37.032;2022-11-22T03:30:32;10.82;;;4.13;;
67514;SDS011;60646;55.802;37.032;2022-11-22T03:32:58;10.98;;;4.03;;
67514;SDS011;60646;55.802;37.032;2022-11-22T03:35:24;12.25;;;4.60;;
67514;SDS011;60646;55.802;37.032;2022-11-22T03:37:50;9.93;;;4.00;;
67514;SDS011;60646;55.802;37.032;2022-11-22T03:40:15;10.77;;;4.15;;
67514;SDS011;60646;55.802;37.032;2022-11-22T03:42:41;12.20;;;4.13;;
67514;SDS011;60646;55.802;37.032;2022-11-22T03:45:07;9.18;;;3.80;;
67514;SDS011;60646;55.802;37.032;2022-11-22T03:47:33;9.20;;;3.60;;
67514;SDS011;60646;55.802;37.032;2022-11-22T03:49:59;9.95;;;4.00;;
67514;SDS011;60646;55.802;37.032;2022-11-22T03:52:26;8.95;;;3.95;;
67514;SDS011;60646;55.802;37.032;2022-11-22T03:54:51;12.07;;;4.40;;
67514;SDS011;60646;55.802;37.032;2022-11-22T03:57:20;10.15;;;4.07;;
67514;SDS011;60646;55.802;37.032;2022-11-22T03:59:46;10.13;;;4.00;;
67514;SDS011;60646;55.802;37.032;2022-11-22T04:02:12;12.20;;;3.70;;
67514;SDS011;60646;55.802;37.032;2022-11-22T04:04:37;10.82;;;3.75;;
67514;SDS011;60646;55.802;37.032;2022-11-22T04:07:03;9.23;;;3.63;;
67514;SDS011;60646;55.802;37.032;2022-11-22T04:09:29;8.48;;;3.92;;
67514;SDS011;60646;55.802;37.032;2022-11-22T04:11:54;7.95;;;3.75;;
67514;SDS011;60646;55.802;37.032;2022-11-22T04:14:20;7.90;;;3.38;;
67514;SDS011;60646;55.802;37.032;2022-11-22T04:17:04;9.10;;;3.40;;
67514;SDS011;60646;55.802;37.032;2022-11-22T04:19:30;10.15;;;4.05;;
67514;SDS011;60646;55.802;37.032;2022-11-22T04:21:55;9.30;;;3.67;;
67514;SDS011;60646;55.802;37.032;2022-11-22T04:24:21;9.15;;;4.00;;
67514;SDS011;60646;55.802;37.032;2022-11-22T04:27:05;8.00;;;3.70;;
67514;SDS011;60646;55.802;37.032;2022-11-22T04:29:31;10.35;;;3.72;;
67514;SDS011;60646;55.802;37.032;2022-11-22T04:31:57;10.05;;;4.50;;
67514;SDS011;60646;55.802;37.032;2022-11-22T04:34:41;10.52;;;4.15;;
67514;SDS011;60646;55.802;37.032;2022-11-22T04:37:06;11.27;;;3.95;;
67514;SDS011;60646;55.802;37.032;2022-11-22T04:39:32;9.07;;;3.72;;
67514;SDS011;60646;55.802;37.032;2022-11-22T04:41:58;10.40;;;3.78;;
67514;SDS011;60646;55.802;37.032;2022-11-22T04:44:42;10.57;;;3.75;;
67514;SDS011;60646;55.802;37.032;2022-11-22T04:47:09;7.13;;;3.63;;
67514;SDS011;60646;55.802;37.032;2022-11-22T04:49:36;12.93;;;4.47;;
67514;SDS011;60646;55.802;37.032;2022-11-22T04:52:02;8.25;;;3.25;;
67514;SDS011;60646;55.802;37.032;2022-11-22T04:54:47;6.93;;;3.58;;
67514;SDS011;60646;55.802;37.032;2022-11-22T04:57:13;9.88;;;3.80;;
67514;SDS011;60646;55.802;37.032;2022-11-22T04:59:39;9.23;;;3.65;;
67514;SDS011;60646;55.802;37.032;2022-11-22T05:02:04;9.15;;;3.50;;
67514;SDS011;60646;55.802;37.032;2022-11-22T05:04:30;9.38;;;3.60;;
67514;SDS011;60646;55.802;37.032;2022-11-22T05:06:56;10.25;;;4.00;;
67514;SDS011;60646;55.802;37.032;2022-11-22T05:09:22;10.25;;;4.13;;
67514;SDS011;60646;55.802;37.032;2022-11-22T05:11:48;10.73;;;4.18;;
67514;SDS011;60646;55.802;37.032;2022-11-22T05:14:14;8.60;;;3.72;;
67514;SDS011;60646;55.802;37.032;2022-11-22T05:16:40;7.35;;;3.60;;
67514;SDS011;60646;55.802;37.032;2022-11-22T05:19:06;11.38;;;3.92;;
67514;SDS011;60646;55.802;37.032;2022-11-22T05:21:32;11.07;;;4.07;;
67514;SDS011;60646;55.802;37.032;2022-11-22T05:24:00;8.68;;;3.85;;
67514;SDS011;60646;55.802;37.032;2022-11-22T05:26:27;7.82;;;3.97;;
67514;SDS011;60646;55.802;37.032;2022-11-22T05:28:58;11.32;;;4.40;;
67514;SDS011;60646;55.802;37.032;2022-11-22T05:31:32;9.65;;;4.03;;
67514;SDS011;60646;55.802;37.032;2022-11-22T05:33:59;11.88;;;4.68;;
67514;SDS011;60646;55.802;37.032;2022-11-22T05:39:15;9.70;;;3.78;;
67514;SDS011;60646;55.802;37.032;2022-11-22T05:41:41;7.47;;;3.28;;
67514;SDS011;60646;55.802;37.032;2022-11-22T05:44:20;7.80;;;3.45;;
67514;SDS011;60646;55.802;37.032;2022-11-22T05:46:47;9.50;;;3.78;;
67514;SDS011;60646;55.802;37.032;2022-11-22T05:49:12;7.93;;;3.58;;
67514;SDS011;60646;55.802;37.032;2022-11-22T05:51:38;11.88;;;4.25;;
67514;SDS011;60646;55.802;37.032;2022-11-22T05:54:04;9.50;;;3.92;;
67514;SDS011;60646;55.802;37.032;2022-11-22T05:56:30;11.48;;;4.85;;
67514;SDS011;60646;55.802;37.032;2022-11-22T05:58:55;10.52;;;4.10;;
67514;SDS011;60646;55.802;37.032;2022-11-22T06:01:22;10.32;;;4.40;;
67514;SDS011;60646;55.802;37.032;2022-11-22T06:03:48;8.68;;;3.80;;
67514;SDS011;60646;55.802;37.032;2022-11-22T06:06:19;9.27;;;3.95;;
67514;SDS011;60646;55.802;37.032;2022-11-22T06:08:46;7.80;;;3.50;;
67514;SDS011;60646;55.802;37.032;2022-11-22T06:11:16;9.05;;;3.53;;
67514;SDS011;60646;55.802;37.032;2022-11-22T06:13:47;7.82;;;3.17;;
67514;SDS011;60646;55.802;37.032;2022-11-22T06:16:14;8.10;;;3.10;;
67514;SDS011;60646;55.802;37.032;2022-11-22T06:18:40;9.85;;;3.47;;
67514;SDS011;60646;55.802;37.032;2022-11-22T06:21:08;11.30;;;3.47;;
67514;SDS011;60646;55.802;37.032;2022-11-22T06:23:36;9.77;;;3.65;;
67514;SDS011;60646;55.802;37.032;2022-11-22T06:26:03;8.35;;;3.05;;
67514;SDS011;60646;55.802;37.032;2022-11-22T06:28:31;8.15;;;3.58;;
67514;SDS011;60646;55.802;37.032;2022-11-22T06:33:31;7.30;;;3.03;;
67514;SDS011;60646;55.802;37.032;2022-11-22T06:36:01;7.38;;;3.30;;
67514;SDS011;60646;55.802;37.032;2022-11-22T06:38:29;8.25;;;3.55;;
67514;SDS011;60646;55.802;37.032;2022-11-22T06:40:59;5.95;;;2.97;;
67514;SDS011;60646;55.802;37.032;2022-11-22T06:43:26;5.47;;;2.92;;
67514;SDS011;60646;55.802;37.032;2022-11-22T06:45:56;7.43;;;2.75;;
67514;SDS011;60646;55.802;37.032;2022-11-22T06:48:24;7.57;;;3.35;;
67514;SDS011;60646;55.802;37.032;2022-11-22T06:50:50;8.27;;;2.92;;
67514;SDS011;60646;55.802;37.032;2022-11-22T06:53:16;5.82;;;2.60;;
67514;SDS011;60646;55.802;37.032;2022-11-22T06:55:45;5.03;;;2.53;;
67514;SDS011;60646;55.802;37.032;2022-11-22T06:58:11;6.63;;;2.95;;
67514;SDS011;60646;55.802;37.032;2022-11-22T07:00:37;6.45;;;2.72;;
67514;SDS011;60646;55.802;37.032;2022-11-22T07:03:07;7.35;;;2.80;;
67514;SDS011;60646;55.802;37.032;2022-11-22T07:05:36;5.75;;;2.63;;
67514;SDS011;60646;55.802;37.032;2022-11-22T07:08:08;7.20;;;3.13;;
67514;SDS011;60646;55.802;37.032;2022-11-22T07:10:35;6.30;;;2.58;;
67514;SDS011;60646;55.802;37.032;2022-11-22T07:13:14;4.55;;;2.28;;
67514;SDS011;60646;55.802;37.032;2022-11-22T07:15:59;3.95;;;2.00;;
67514;SDS011;60646;55.802;37.032;2022-11-22T07:18:43;7.47;;;2.42;;
67514;SDS011;60646;55.802;37.032;2022-11-22T07:21:15;3.35;;;1.75;;
67514;SDS011;60646;55.802;37.032;2022-11-22T07:24:04;3.28;;;1.65;;
67514;SDS011;60646;55.802;37.032;2022-11-22T07:26:43;5.03;;;2.22;;
67514;SDS011;60646;55.802;37.032;2022-11-22T07:29:09;4.68;;;2.00;;
67514;SDS011;60646;55.802;37.032;2022-11-22T07:31:35;4.93;;;2.22;;
67514;SDS011;60646;55.802;37.032;2022-11-22T07:34:01;5.50;;;1.80;;
67514;SDS011;60646;55.802;37.032;2022-11-22T07:36:33;3.65;;;1.88;;
67514;SDS011;60646;55.802;37.032;2022-11-22T07:38:59;4.22;;;1.77;;
67514;SDS011;60646;55.802;37.032;2022-11-22T07:41:27;5.03;;;2.13;;
67514;SDS011;60646;55.802;37.032;2022-11-22T07:43:58;6.00;;;2.40;;
67514;SDS011;60646;55.802;37.032;2022-11-22T07:46:26;5.50;;;1.90;;
67514;SDS011;60646;55.802;37.032;2022-11-22T07:48:58;4.10;;;1.77;;
67514;SDS011;60646;55.802;37.032;2022-11-22T07:51:25;4.13;;;1.95;;
67514;SDS011;60646;55.802;37.032;2022-11-22T07:53:51;4.13;;;1.60;;
67514;SDS011;60646;55.802;37.032;2022-11-22T07:56:18;4.53;;;1.98;;
67514;SDS011;60646;55.802;37.032;2022-11-22T07:58:44;4.07;;;1.83;;
67514;SDS011;60646;55.802;37.032;2022-11-22T08:01:11;2.80;;;1.40;;
67514;SDS011;60646;55.802;37.032;2022-11-22T08:03:41;3.00;;;1.55;;
67514;SDS011;60646;55.802;37.032;2022-11-22T08:06:08;4.95;;;1.88;;
67514;SDS011;60646;55.802;37.032;2022-11-22T08:08:35;4.72;;;1.70;;
67514;SDS011;60646;55.802;37.032;2022-11-22T08:11:02;7.13;;;2.70;;
67514;SDS011;60646;55.802;37.032;2022-11-22T08:13:29;6.75;;;2.65;;
67514;SDS011;60646;55.802;37.032;2022-11-22T08:15:55;5.25;;;2.22;;
67514;SDS011;60646;55.802;37.032;2022-11-22T08:18:26;5.13;;;2.33;;
67514;SDS011;60646;55.802;37.032;2022-11-22T08:21:00;5.10;;;1.80;;
67514;SDS011;60646;55.802;37.032;2022-11-22T08:23:26;5.93;;;1.95;;
67514;SDS011;60646;55.802;37.032;2022-11-22T08:25:52;4.20;;;2.03;;
67514;SDS011;60646;55.802;37.032;2022-11-22T08:28:18;2.58;;;1.50;;
67514;SDS011;60646;55.802;37.032;2022-11-22T08:30:43;6.43;;;1.73;;
67514;SDS011;60646;55.802;37.032;2022-11-22T08:33:09;5.55;;;1.80;;
67514;SDS011;60646;55.802;37.032;2022-11-22T08:35:35;7.97;;;1.70;;
67514;SDS011;60646;55.802;37.032;2022-11-22T08:38:00;3.85;;;1.63;;
67514;SDS011;60646;55.802;37.032;2022-11-22T08:40:26;5.15;;;2.05;;
67514;SDS011;60646;55.802;37.032;2022-11-22T08:42:52;5.05;;;2.00;;
67514;SDS011;60646;55.802;37.032;2022-11-22T08:45:19;4.90;;;1.95;;
67514;SDS011;60646;55.802;37.032;2022-11-22T08:47:45;3.25;;;1.80;;
67514;SDS011;60646;55.802;37.032;2022-11-22T08:50:13;3.85;;;1.58;;
67514;SDS011;60646;55.802;37.032;2022-11-22T08:52:39;6.82;;;1.80;;
67514;SDS011;60646;55.802;37.032;2022-11-22T08:55:05;4.20;;;1.58;;
67514;SDS011;60646;55.802;37.032;2022-11-22T08:57:31;3.58;;;1.58;;
67514;SDS011;60646;55.802;37.032;2022-11-22T08:59:57;2.38;;;1.45;;
67514;SDS011;60646;55.802;37.032;2022-11-22T09:02:23;2.63;;;1.67;;
67514;SDS011;60646;55.802;37.032;2022-11-22T09:04:49;4.95;;;1.73;;
67514;SDS011;60646;55.802;37.032;2022-11-22T09:07:14;3.80;;;1.80;;
67514;SDS011;60646;55.802;37.032;2022-11-22T09:09:40;4.18;;;1.40;;
67514;SDS011;60646;55.802;37.032;2022-11-22T09:12:06;3.10;;;1.60;;
67514;SDS011;60646;55.802;37.032;2022-11-22T09:14:32;4.32;;;1.70;;
67514;SDS011;60646;55.802;37.032;2022-11-22T09:16:58;8.13;;;1.75;;
67514;SDS011;60646;55.802;37.032;2022-11-22T09:19:24;5.90;;;1.70;;
67514;SDS011;60646;55.802;37.032;2022-11-22T09:21:50;5.50;;;1.60;;
67514;SDS011;60646;55.802;37.032;2022-11-22T09:24:19;3.58;;;1.60;;
67514;SDS011;60646;55.802;37.032;2022-11-22T09:26:44;3.40;;;1.75;;
67514;SDS011;60646;55.802;37.032;2022-11-22T09:29:10;4.82;;;2.08;;
67514;SDS011;60646;55.802;37.032;2022-11-22T09:31:36;3.20;;;1.63;;
67514;SDS011;60646;55.802;37.032;2022-11-22T09:34:02;5.15;;;1.65;;
67514;SDS011;60646;55.802;37.032;2022-11-22T09:36:28;3.63;;;1.63;;
67514;SDS011;60646;55.802;37.032;2022-11-22T09:38:55;2.70;;;1.60;;
67514;SDS011;60646;55.802;37.032;2022-11-22T09:41:25;2.85;;;1.55;;
67514;SDS011;60646;55.802;37.032;2022-11-22T09:51:57;3.10;;;1.65;;
67514;SDS011;60646;55.802;37.032;2022-11-22T09:54:51;7.63;;;2.10;;
67514;SDS011;60646;55.802;37.032;2022-11-22T09:57:25;5.07;;;1.80;;
67514;SDS011;60646;55.802;37.032;2022-11-22T10:00:06;3.25;;;1.80;;
67514;SDS011;60646;55.802;37.032;2022-11-22T10:02:44;4.40;;;1.67;;
67514;SDS011;60646;55.802;37.032;2022-11-22T10:05:29;2.90;;;1.85;;
67514;SDS011;60646;55.802;37.032;2022-11-22T10:11:02;4.32;;;1.70;;
67514;SDS011;60646;55.802;37.032;2022-11-22T10:13:37;2.88;;;1.48;;
67514;SDS011;60646;55.802;37.032;2022-11-22T10:16:18;2.53;;;1.63;;
67514;SDS011;60646;55.802;37.032;2022-11-22T10:18:50;3.80;;;1.90;;
67514;SDS011;60646;55.802;37.032;2022-11-22T10:21:23;3.45;;;1.70;;
67514;SDS011;60646;55.802;37.032;2022-11-22T10:23:50;5.78;;;1.75;;
67514;SDS011;60646;55.802;37.032;2022-11-22T10:26:19;2.08;;;1.50;;
67514;SDS011;60646;55.802;37.032;2022-11-22T10:29:07;4.32;;;2.03;;
67514;SDS011;60646;55.802;37.032;2022-11-22T10:51:18;2.10;;;1.52;;
67514;SDS011;60646;55.802;37.032;2022-11-22T10:56:51;3.53;;;2.08;;
67514;SDS011;60646;55.802;37.032;2022-11-22T11:05:11;5.28;;;1.77;;
67514;SDS011;60646;55.802;37.032;2022-11-22T11:07:47;3.33;;;1.70;;
67514;SDS011;60646;55.802;37.032;2022-11-22T11:10:20;6.38;;;2.17;;
67514;SDS011;60646;55.802;37.032;2022-11-22T11:12:54;4.00;;;1.77;;
67514;SDS011;60646;55.802;37.032;2022-11-22T11:15:35;2.78;;;1.98;;
67514;SDS011;60646;55.802;37.032;2022-11-22T11:18:09;2.80;;;1.88;;
67514;SDS011;60646;55.802;37.032;2022-11-22T11:20:40;6.10;;;2.25;;
67514;SDS011;60646;55.802;37.032;2022-11-22T11:23:10;4.15;;;2.15;;
67514;SDS011;60646;55.802;37.032;2022-11-22T11:25:39;3.47;;;1.65;;
67514;SDS011;60646;55.802;37.032;2022-11-22T11:31:43;3.33;;;2.00;;
67514;SDS011;60646;55.802;37.032;2022-11-22T11:34:14;3.83;;;2.25;;
67514;SDS011;60646;55.802;37.032;2022-11-22T11:36:40;3.60;;;1.90;;
67514;SDS011;60646;55.802;37.032;2022-11-22T11:39:17;3.05;;;1.42;;
67514;SDS011;60646;55.802;37.032;2022-11-22T11:42:19;2.70;;;1.80;;
67514;SDS011;60646;55.802;37.032;2022-11-22T11:44:49;2.92;;;1.63;;
67514;SDS011;60646;55.802;37.032;2022-11-22T11:47:20;3.42;;;1.77;;
67514;SDS011;60646;55.802;37.032;2022-11-22T11:49:56;3.92;;;1.77;;
67514;SDS011;60646;55.802;37.032;2022-11-22T11:52:22;4.57;;;1.70;;
67514;SDS011;60646;55.802;37.032;2022-11-22T11:54:53;3.92;;;1.50;;
67514;SDS011;60646;55.802;37.032;2022-11-22T11:57:28;4.00;;;1.70;;
67514;SDS011;60646;55.802;37.032;2022-11-22T11:59:56;3.78;;;2.00;;
67514;SDS011;60646;55.802;37.032;2022-11-22T12:02:27;4.00;;;1.60;;
67514;SDS011;60646;55.802;37.032;2022-11-22T12:10:02;6.50;;;1.58;;
67514;SDS011;60646;55.802;37.032;2022-11-22T12:12:48;6.75;;;1.80;;
67514;SDS011;60646;55.802;37.032;2022-11-22T12:15:25;2.97;;;1.40;;
67514;SDS011;60646;55.802;37.032;2022-11-22T12:23:46;4.10;;;1.77;;
67514;SDS011;60646;55.802;37.032;2022-11-22T12:26:18;3.92;;;1.70;;
67514;SDS011;60646;55.802;37.032;2022-11-22T12:28:44;6.95;;;1.80;;
67514;SDS011;60646;55.802;37.032;2022-11-22T12:31:18;4.05;;;1.85;;
67514;SDS011;60646;55.802;37.032;2022-11-22T12:33:55;4.05;;;1.88;;
67514;SDS011;60646;55.802;37.032;2022-11-22T12:36:28;3.83;;;1.67;;
67514;SDS011;60646;55.802;37.032;2022-11-22T12:38:58;3.90;;;2.05;;
67514;SDS011;60646;55.802;37.032;2022-11-22T12:41:27;5.30;;;2.28;;
67514;SDS011;60646;55.802;37.032;2022-11-22T12:43:56;7.78;;;1.77;;
67514;SDS011;60646;55.802;37.032;2022-11-22T12:46:29;6.22;;;2.17;;
67514;SDS011;60646;55.802;37.032;2022-11-22T12:49:03;5.05;;;2.20;;
67514;SDS011;60646;55.802;37.032;2022-11-22T12:51:36;5.90;;;2.25;;
67514;SDS011;60646;55.802;37.032;2022-11-22T12:54:16;6.63;;;3.00;;
67514;SDS011;60646;55.802;37.032;2022-11-22T12:56:47;4.25;;;1.90;;
67514;SDS011;60646;55.802;37.032;2022-11-22T12:59:21;5.55;;;1.90;;
67514;SDS011;60646;55.802;37.032;2022-11-22T13:11:47;4.53;;;2.05;;
67514;SDS011;60646;55.802;37.032;2022-11-22T13:14:42;4.07;;;1.80;;
67514;SDS011;60646;55.802;37.032;2022-11-22T13:17:10;3.50;;;2.00;;
67514;SDS011;60646;55.802;37.032;2022-11-22T13:19:46;4.22;;;1.90;;
67514;SDS011;60646;55.802;37.032;2022-11-22T13:25:02;3.85;;;2.55;;
67514;SDS011;60646;55.802;37.032;2022-11-22T13:28:22;2.83;;;1.95;;
67514;SDS011;60646;55.802;37.032;2022-11-22T13:33:59;3.20;;;2.00;;
67514;SDS011;60646;55.802;37.032;2022-11-22T13:38:53;4.30;;;2.05;;
67514;SDS011;60646;55.802;37.032;2022-11-22T13:41:22;3.40;;;2.00;;
67514;SDS011;60646;55.802;37.032;2022-11-22T13:43:50;2.95;;;1.80;;
67514;SDS011;60646;55.802;37.032;2022-11-22T13:46:45;3.00;;;1.90;;
67514;SDS011;60646;55.802;37.032;2022-11-22T13:49:32;4.38;;;1.85;;
67514;SDS011;60646;55.802;37.032;2022-11-22T13:57:32;6.80;;;2.50;;
67514;SDS011;60646;55.802;37.032;2022-11-22T14:05:58;4.80;;;2.22;;
67514;SDS011;60646;55.802;37.032;2022-11-22T14:08:35;4.32;;;2.00;;
67514;SDS011;60646;55.802;37.032;2022-11-22T14:22:16;4.68;;;2.30;;
67514;SDS011;60646;55.802;37.032;2022-11-22T14:27:35;3.63;;;2.38;;
67514;SDS011;60646;55.802;37.032;2022-11-22T14:35:35;3.72;;;2.28;;
67514;SDS011;60646;55.802;37.032;2022-11-22T14:43:15;3.75;;;1.77;;
67514;SDS011;60646;55.802;37.032;2022-11-22T14:45:49;3.65;;;1.98;;
67514;SDS011;60646;55.802;37.032;2022-11-22T14:48:21;5.10;;;2.03;;
67514;SDS011;60646;55.802;37.032;2022-11-22T14:50:50;3.67;;;2.03;;
67514;SDS011;60646;55.802;37.032;2022-11-22T14:53:23;4.13;;;2.00;;
67514;SDS011;60646;55.802;37.032;2022-11-22T14:56:15;8.30;;;2.20;;
67514;SDS011;60646;55.802;37.032;2022-11-22T14:59:03;4.07;;;2.00;;
67514;SDS011;60646;55.802;37.032;2022-11-22T15:12:46;4.05;;;2.00;;
67514;SDS011;60646;55.802;37.032;2022-11-22T15:20:49;6.95;;;2.58;;
67514;SDS011;60646;55.802;37.032;2022-11-22T15:23:27;4.07;;;1.77;;
67514;SDS011;60646;55.802;37.032;2022-11-22T15:26:00;4.35;;;2.30;;
67514;SDS011;60646;55.802;37.032;2022-11-22T15:28:28;4.95;;;1.58;;
67514;SDS011;60646;55.802;37.032;2022-11-22T15:31:00;4.10;;;2.05;;
67514;SDS011;60646;55.802;37.032;2022-11-22T15:33:33;3.90;;;2.20;;
67514;SDS011;60646;55.802;37.032;2022-11-22T15:38:42;7.13;;;1.80;;
67514;SDS011;60646;55.802;37.032;2022-11-22T15:41:12;2.65;;;1.80;;
67514;SDS011;60646;55.802;37.032;2022-11-22T15:43:39;2.37;;;1.57;;
67514;SDS011;60646;55.802;37.032;2022-11-22T15:46:05;5.13;;;1.92;;
67514;SDS011;60646;55.802;37.032;2022-11-22T15:48:38;2.03;;;1.40;;
67514;SDS011;60646;55.802;37.032;2022-11-22T15:53:34;2.75;;;1.60;;
67514;SDS011;60646;55.802;37.032;2022-11-22T15:58:45;2.33;;;1.50;;
67514;SDS011;60646;55.802;37.032;2022-11-22T16:01:14;3.42;;;1.95;;
67514;SDS011;60646;55.802;37.032;2022-11-22T16:03:41;2.67;;;1.70;;
67514;SDS011;60646;55.802;37.032;2022-11-22T16:06:16;3.88;;;1.73;;
67514;SDS011;60646;55.802;37.032;2022-11-22T16:08:47;2.30;;;1.60;;
67514;SDS011;60646;55.802;37.032;2022-11-22T16:11:21;2.33;;;1.80;;
67514;SDS011;60646;55.802;37.032;2022-11-22T16:13:51;2.15;;;1.73;;
67514;SDS011;60646;55.802;37.032;2022-11-22T16:16:18;3.70;;;1.80;;
67514;SDS011;60646;55.802;37.032;2022-11-22T16:18:50;3.00;;;1.50;;
67514;SDS011;60646;55.802;37.032;2022-11-22T16:21:18;3.15;;;1.52;;
67514;SDS011;60646;55.802;37.032;2022-11-22T16:23:45;4.82;;;1.67;;
67514;SDS011;60646;55.802;37.032;2022-11-22T16:28:51;3.45;;;1.30;;
67514;SDS011;60646;55.802;37.032;2022-11-22T16:31:22;2.85;;;1.58;;
67514;SDS011;60646;55.802;37.032;2022-11-22T16:33:53;4.68;;;1.67;;
67514;SDS011;60646;55.802;37.032;2022-11-22T16:36:21;2.50;;;1.52;;
67514;SDS011;60646;55.802;37.032;2022-11-22T16:38:48;4.53;;;2.00;;
67514;SDS011;60646;55.802;37.032;2022-11-22T16:41:20;3.22;;;1.58;;
67514;SDS011;60646;55.802;37.032;2022-11-22T16:43:47;3.58;;;1.42;;
67514;SDS011;60646;55.802;37.032;2022-11-22T16:46:23;3.25;;;1.63;;
67514;SDS011;60646;55.802;37.032;2022-11-22T16:48:49;2.88;;;1.60;;
67514;SDS011;60646;55.802;37.032;2022-11-22T16:58:14;4.22;;;2.10;;
67514;SDS011;60646;55.802;37.032;2022-11-22T17:00:42;1.75;;;1.40;;
67514;SDS011;60646;55.802;37.032;2022-11-22T17:03:10;3.03;;;1.63;;
67514;SDS011;60646;55.802;37.032;2022-11-22T17:05:37;2.92;;;1.60;;
67514;SDS011;60646;55.802;37.032;2022-11-22T17:08:07;4.32;;;1.98;;
67514;SDS011;60646;55.802;37.032;2022-11-22T17:10:35;4.67;;;1.70;;
67514;SDS011;60646;55.802;37.032;2022-11-22T17:13:03;3.13;;;1.70;;
67514;SDS011;60646;55.802;37.032;2022-11-22T17:15:33;3.95;;;2.10;;
67514;SDS011;60646;55.802;37.032;2022-11-22T17:18:00;1.92;;;1.42;;
67514;SDS011;60646;55.802;37.032;2022-11-22T17:20:26;4.25;;;1.75;;